sensor_id;sensor_type;location;lat;lon;timestamp;temperature;humidity
6421;DHT22;3243;50.958;7.012;2023-05-08T00:01:29;15.50;99.90
6421;DHT22;3243;50.958;7.012;2023-05-08T00:08:56;15.50;99.90
6421;DHT22;3243;50.958;7.012;2023-05-08T00:11:22;15.50;99.90
6421;DHT22;3243;50.958;7.012;2023-05-08T00:13:49;15.50;99.90
6421;DHT22;3243;50.958;7.012;2023-05-08T00:18:43;15.50;99.90
6421;DHT22;3243;50.958;7.012;2023-05-08T00:30:59;15.40;99.90
6421;DHT22;3243;50.958;7.012;2023-05-08T00:33:27;15.50;99.90
6421;DHT22;3243;50.958;7.012;2023-05-08T00:35:58;15.40;99.90
6421;DHT22;3243;50.958;7.012;2023-05-08T00:43:20;15.40;99.90
6421;DHT22;3243;50.958;7.012;2023-05-08T00:48:21;15.30;99.90
6421;DHT22;3243;50.958;7.012;2023-05-08T00:50:49;15.40;99.90
6421;DHT22;3243;50.958;7.012;2023-05-08T00:53:18;15.40;99.90
6421;DHT22;3243;50.958;7.012;2023-05-08T00:58:12;15.30;99.90
6421;DHT22;3243;50.958;7.012;2023-05-08T01:00:41;15.30;99.90
6421;DHT22;3243;50.958;7.012;2023-05-08T01:05:36;15.30;99.90
6421;DHT22;3243;50.958;7.012;2023-05-08T01:11:00;15.20;99.90
6421;DHT22;3243;50.958;7.012;2023-05-08T01:16:51;15.20;99.90
6421;DHT22;3243;50.958;7.012;2023-05-08T01:30:59;15.10;99.90
6421;DHT22;3243;50.958;7.012;2023-05-08T01:33:40;15.10;99.90
6421;DHT22;3243;50.958;7.012;2023-05-08T01:36:24;15.10;99.90
6421;DHT22;3243;50.958;7.012;2023-05-08T01:39:03;15.10;99.90
6421;DHT22;3243;50.958;7.012;2023-05-08T01:41:36;15.00;99.90
6421;DHT22;3243;50.958;7.012;2023-05-08T01:46:32;15.00;99.90
6421;DHT22;3243;50.958;7.012;2023-05-08T01:49:24;15.00;99.90
6421;DHT22;3243;50.958;7.012;2023-05-08T01:52:19;14.90;99.90
6421;DHT22;3243;50.958;7.012;2023-05-08T01:54:56;14.90;99.90
6421;DHT22;3243;50.958;7.012;2023-05-08T01:57:27;14.90;99.90
6421;DHT22;3243;50.958;7.012;2023-05-08T01:59:56;14.80;99.90
6421;DHT22;3243;50.958;7.012;2023-05-08T02:04:51;14.90;99.90
6421;DHT22;3243;50.958;7.012;2023-05-08T02:07:22;14.90;99.90
6421;DHT22;3243;50.958;7.012;2023-05-08T02:09:50;14.80;99.90
6421;DHT22;3243;50.958;7.012;2023-05-08T02:12:18;14.90;99.90
6421;DHT22;3243;50.958;7.012;2023-05-08T02:14:48;14.80;99.90
6421;DHT22;3243;50.958;7.012;2023-05-08T02:17:16;14.80;99.90
6421;DHT22;3243;50.958;7.012;2023-05-08T02:19:43;14.80;99.90
6421;DHT22;3243;50.958;7.012;2023-05-08T02:22:13;14.80;99.90
6421;DHT22;3243;50.958;7.012;2023-05-08T02:24:42;14.80;99.90
6421;DHT22;3243;50.958;7.012;2023-05-08T02:27:11;14.80;99.90
6421;DHT22;3243;50.958;7.012;2023-05-08T02:29:38;14.80;99.90
6421;DHT22;3243;50.958;7.012;2023-05-08T02:32:07;14.80;99.90
6421;DHT22;3243;50.958;7.012;2023-05-08T02:34:34;14.80;99.90
6421;DHT22;3243;50.958;7.012;2023-05-08T02:37:02;14.80;99.90
6421;DHT22;3243;50.958;7.012;2023-05-08T02:39:30;14.70;99.90
6421;DHT22;3243;50.958;7.012;2023-05-08T02:41:59;14.70;99.90
6421;DHT22;3243;50.958;7.012;2023-05-08T02:44:26;14.70;99.90
6421;DHT22;3243;50.958;7.012;2023-05-08T02:46:59;14.70;99.90
6421;DHT22;3243;50.958;7.012;2023-05-08T02:52:24;14.70;99.90
6421;DHT22;3243;50.958;7.012;2023-05-08T02:57:46;14.70;99.90
6421;DHT22;3243;50.958;7.012;2023-05-08T03:00:15;14.60;99.90
6421;DHT22;3243;50.958;7.012;2023-05-08T03:02:47;14.70;99.90
6421;DHT22;3243;50.958;7.012;2023-05-08T03:05:22;14.60;99.90
6421;DHT22;3243;50.958;7.012;2023-05-08T03:07:53;14.70;99.90
6421;DHT22;3243;50.958;7.012;2023-05-08T03:10:25;14.60;99.90
6421;DHT22;3243;50.958;7.012;2023-05-08T03:12:54;14.60;99.90
6421;DHT22;3243;50.958;7.012;2023-05-08T03:17:55;14.50;99.90
6421;DHT22;3243;50.958;7.012;2023-05-08T03:20:23;14.60;99.90
6421;DHT22;3243;50.958;7.012;2023-05-08T03:22:54;14.60;99.90
6421;DHT22;3243;50.958;7.012;2023-05-08T03:25:21;14.60;99.90
6421;DHT22;3243;50.958;7.012;2023-05-08T03:27:49;14.60;99.90
6421;DHT22;3243;50.958;7.012;2023-05-08T03:30:18;14.60;99.90
6421;DHT22;3243;50.958;7.012;2023-05-08T03:32:46;14.60;99.90
6421;DHT22;3243;50.958;7.012;2023-05-08T03:35:15;14.60;99.90
6421;DHT22;3243;50.958;7.012;2023-05-08T03:37:43;14.60;99.90
6421;DHT22;3243;50.958;7.012;2023-05-08T03:42:39;14.60;99.90
6421;DHT22;3243;50.958;7.012;2023-05-08T03:45:08;14.50;99.90
6421;DHT22;3243;50.958;7.012;2023-05-08T03:47:37;14.50;99.90
6421;DHT22;3243;50.958;7.012;2023-05-08T03:50:05;14.60;99.90
6421;DHT22;3243;50.958;7.012;2023-05-08T03:54:59;14.60;99.90
6421;DHT22;3243;50.958;7.012;2023-05-08T04:00:16;14.50;99.90
6421;DHT22;3243;50.958;7.012;2023-05-08T04:02:51;14.50;99.90
6421;DHT22;3243;50.958;7.012;2023-05-08T04:05:35;14.50;99.90
6421;DHT22;3243;50.958;7.012;2023-05-08T04:08:30;14.50;99.90
6421;DHT22;3243;50.958;7.012;2023-05-08T04:11:28;14.50;99.90
6421;DHT22;3243;50.958;7.012;2023-05-08T04:14:05;14.50;99.90
6421;DHT22;3243;50.958;7.012;2023-05-08T04:16:38;14.40;99.90
6421;DHT22;3243;50.958;7.012;2023-05-08T04:19:16;14.40;99.90
6421;DHT22;3243;50.958;7.012;2023-05-08T04:21:44;14.40;99.90
6421;DHT22;3243;50.958;7.012;2023-05-08T04:24:13;14.40;99.90
6421;DHT22;3243;50.958;7.012;2023-05-08T04:26:41;14.30;99.90
6421;DHT22;3243;50.958;7.012;2023-05-08T04:29:09;14.40;99.90
6421;DHT22;3243;50.958;7.012;2023-05-08T04:31:37;14.40;99.90
6421;DHT22;3243;50.958;7.012;2023-05-08T04:34:05;14.30;99.90
6421;DHT22;3243;50.958;7.012;2023-05-08T04:41:29;14.40;99.90
6421;DHT22;3243;50.958;7.012;2023-05-08T04:43:56;14.40;99.90
6421;DHT22;3243;50.958;7.012;2023-05-08T04:53:45;14.40;99.90
6421;DHT22;3243;50.958;7.012;2023-05-08T04:56:11;14.40;99.90
6421;DHT22;3243;50.958;7.012;2023-05-08T04:58:38;14.40;99.90
6421;DHT22;3243;50.958;7.012;2023-05-08T05:03:32;14.50;99.90
6421;DHT22;3243;50.958;7.012;2023-05-08T05:06:00;14.50;99.90
6421;DHT22;3243;50.958;7.012;2023-05-08T05:08:27;14.60;99.90
6421;DHT22;3243;50.958;7.012;2023-05-08T05:10:53;14.60;99.90
6421;DHT22;3243;50.958;7.012;2023-05-08T05:18:16;14.70;99.90
6421;DHT22;3243;50.958;7.012;2023-05-08T05:23:11;14.80;99.90
6421;DHT22;3243;50.958;7.012;2023-05-08T05:28:05;14.90;99.90
6421;DHT22;3243;50.958;7.012;2023-05-08T05:32:59;14.90;99.90
6421;DHT22;3243;50.958;7.012;2023-05-08T05:40:21;15.10;99.90
6421;DHT22;3243;50.958;7.012;2023-05-08T05:42:48;15.20;99.90
6421;DHT22;3243;50.958;7.012;2023-05-08T05:45:16;15.20;99.90
6421;DHT22;3243;50.958;7.012;2023-05-08T05:47:44;15.30;99.90
6421;DHT22;3243;50.958;7.012;2023-05-08T05:52:39;15.40;99.90
6421;DHT22;3243;50.958;7.012;2023-05-08T06:00:00;15.40;99.90
6421;DHT22;3243;50.958;7.012;2023-05-08T06:02:27;15.40;99.90
6421;DHT22;3243;50.958;7.012;2023-05-08T06:07:21;15.40;99.90
6421;DHT22;3243;50.958;7.012;2023-05-08T06:09:48;15.40;99.90
6421;DHT22;3243;50.958;7.012;2023-05-08T06:12:16;15.50;99.90
6421;DHT22;3243;50.958;7.012;2023-05-08T06:14:44;15.40;99.90
6421;DHT22;3243;50.958;7.012;2023-05-08T06:29:28;15.50;99.90
6421;DHT22;3243;50.958;7.012;2023-05-08T06:31:54;15.50;99.90
6421;DHT22;3243;50.958;7.012;2023-05-08T06:39:16;15.40;99.90
6421;DHT22;3243;50.958;7.012;2023-05-08T06:41:46;15.50;99.90
6421;DHT22;3243;50.958;7.012;2023-05-08T06:44:14;15.60;99.90
6421;DHT22;3243;50.958;7.012;2023-05-08T06:49:08;15.70;99.90
6421;DHT22;3243;50.958;7.012;2023-05-08T06:51:35;15.80;99.90
6421;DHT22;3243;50.958;7.012;2023-05-08T06:54:03;15.90;99.90
6421;DHT22;3243;50.958;7.012;2023-05-08T06:56:34;16.00;99.90
6421;DHT22;3243;50.958;7.012;2023-05-08T06:59:01;16.00;99.90
6421;DHT22;3243;50.958;7.012;2023-05-08T07:04:03;16.10;99.90
6421;DHT22;3243;50.958;7.012;2023-05-08T07:08:57;16.10;99.90
6421;DHT22;3243;50.958;7.012;2023-05-08T07:11:24;16.00;99.90
6421;DHT22;3243;50.958;7.012;2023-05-08T07:16:18;15.90;99.90
6421;DHT22;3243;50.958;7.012;2023-05-08T07:21:12;16.00;99.90
6421;DHT22;3243;50.958;7.012;2023-05-08T07:23:41;16.20;99.90
6421;DHT22;3243;50.958;7.012;2023-05-08T07:26:07;16.50;99.90
6421;DHT22;3243;50.958;7.012;2023-05-08T07:28:34;16.80;99.90
6421;DHT22;3243;50.958;7.012;2023-05-08T07:31:04;16.90;99.90
6421;DHT22;3243;50.958;7.012;2023-05-08T07:33:32;17.10;99.90
6421;DHT22;3243;50.958;7.012;2023-05-08T07:36:00;17.20;99.90
6421;DHT22;3243;50.958;7.012;2023-05-08T07:38:27;17.40;99.90
6421;DHT22;3243;50.958;7.012;2023-05-08T07:43:26;17.50;99.90
6421;DHT22;3243;50.958;7.012;2023-05-08T07:45:53;17.60;99.90
6421;DHT22;3243;50.958;7.012;2023-05-08T07:48:19;17.70;99.90
6421;DHT22;3243;50.958;7.012;2023-05-08T07:50:48;17.90;99.90
6421;DHT22;3243;50.958;7.012;2023-05-08T07:53:16;18.40;99.90
6421;DHT22;3243;50.958;7.012;2023-05-08T07:55:42;18.50;99.90
6421;DHT22;3243;50.958;7.012;2023-05-08T07:58:09;19.50;99.90
6421;DHT22;3243;50.958;7.012;2023-05-08T08:00:36;19.90;99.90
6421;DHT22;3243;50.958;7.012;2023-05-08T08:03:03;19.90;99.90
6421;DHT22;3243;50.958;7.012;2023-05-08T08:05:30;19.80;99.90
6421;DHT22;3243;50.958;7.012;2023-05-08T08:07:56;19.60;99.90
6421;DHT22;3243;50.958;7.012;2023-05-08T08:10:23;19.60;99.90
6421;DHT22;3243;50.958;7.012;2023-05-08T08:12:50;19.40;99.90
6421;DHT22;3243;50.958;7.012;2023-05-08T08:15:17;19.10;99.90
6421;DHT22;3243;50.958;7.012;2023-05-08T08:17:43;19.20;99.90
6421;DHT22;3243;50.958;7.012;2023-05-08T08:20:11;19.30;99.90
6421;DHT22;3243;50.958;7.012;2023-05-08T08:22:37;19.30;99.90
6421;DHT22;3243;50.958;7.012;2023-05-08T08:25:05;19.20;99.90
6421;DHT22;3243;50.958;7.012;2023-05-08T08:27:31;19.10;99.90
6421;DHT22;3243;50.958;7.012;2023-05-08T08:32:42;19.00;99.90
6421;DHT22;3243;50.958;7.012;2023-05-08T08:35:09;18.70;99.90
6421;DHT22;3243;50.958;7.012;2023-05-08T08:37:36;19.00;99.90
6421;DHT22;3243;50.958;7.012;2023-05-08T08:40:03;19.10;99.90
6421;DHT22;3243;50.958;7.012;2023-05-08T08:42:30;19.10;99.90
6421;DHT22;3243;50.958;7.012;2023-05-08T08:44:57;19.10;99.90
6421;DHT22;3243;50.958;7.012;2023-05-08T08:47:27;19.30;99.90
6421;DHT22;3243;50.958;7.012;2023-05-08T08:49:57;19.20;99.90
6421;DHT22;3243;50.958;7.012;2023-05-08T08:52:38;19.40;99.90
6421;DHT22;3243;50.958;7.012;2023-05-08T08:55:08;19.70;99.90
6421;DHT22;3243;50.958;7.012;2023-05-08T08:57:39;19.90;99.90
6421;DHT22;3243;50.958;7.012;2023-05-08T09:00:08;19.90;99.90
6421;DHT22;3243;50.958;7.012;2023-05-08T09:02:36;19.70;99.90
6421;DHT22;3243;50.958;7.012;2023-05-08T09:05:03;19.60;99.90
6421;DHT22;3243;50.958;7.012;2023-05-08T09:07:31;19.60;99.90
6421;DHT22;3243;50.958;7.012;2023-05-08T09:09:58;19.60;99.90
6421;DHT22;3243;50.958;7.012;2023-05-08T09:12:25;19.50;99.90
6421;DHT22;3243;50.958;7.012;2023-05-08T09:14:52;19.50;99.90
6421;DHT22;3243;50.958;7.012;2023-05-08T09:17:19;19.50;99.90
6421;DHT22;3243;50.958;7.012;2023-05-08T09:19:48;19.40;99.90
6421;DHT22;3243;50.958;7.012;2023-05-08T09:22:15;19.40;99.90
6421;DHT22;3243;50.958;7.012;2023-05-08T09:24:56;19.30;99.90
6421;DHT22;3243;50.958;7.012;2023-05-08T09:27:24;19.40;99.90
6421;DHT22;3243;50.958;7.012;2023-05-08T09:30:07;19.20;99.90
6421;DHT22;3243;50.958;7.012;2023-05-08T09:32:37;19.00;99.90
6421;DHT22;3243;50.958;7.012;2023-05-08T09:35:05;19.10;99.90
6421;DHT22;3243;50.958;7.012;2023-05-08T09:37:32;19.20;99.90
6421;DHT22;3243;50.958;7.012;2023-05-08T09:40:15;19.20;99.90
6421;DHT22;3243;50.958;7.012;2023-05-08T09:42:42;19.20;99.90
6421;DHT22;3243;50.958;7.012;2023-05-08T09:45:09;19.30;99.90
6421;DHT22;3243;50.958;7.012;2023-05-08T09:47:37;19.10;99.90
6421;DHT22;3243;50.958;7.012;2023-05-08T09:50:06;19.10;99.90
6421;DHT22;3243;50.958;7.012;2023-05-08T09:52:34;19.10;99.90
6421;DHT22;3243;50.958;7.012;2023-05-08T09:55:09;19.00;99.90
6421;DHT22;3243;50.958;7.012;2023-05-08T09:57:37;18.90;99.90
6421;DHT22;3243;50.958;7.012;2023-05-08T10:02:33;18.90;99.90
6421;DHT22;3243;50.958;7.012;2023-05-08T10:05:01;18.80;99.90
6421;DHT22;3243;50.958;7.012;2023-05-08T10:07:30;18.90;99.90
6421;DHT22;3243;50.958;7.012;2023-05-08T10:09:58;18.80;99.90
6421;DHT22;3243;50.958;7.012;2023-05-08T10:12:26;18.70;99.90
6421;DHT22;3243;50.958;7.012;2023-05-08T10:14:54;18.50;99.90
6421;DHT22;3243;50.958;7.012;2023-05-08T10:19:58;18.50;99.90
6421;DHT22;3243;50.958;7.012;2023-05-08T10:22:27;18.40;99.90
6421;DHT22;3243;50.958;7.012;2023-05-08T10:24:56;18.20;99.90
6421;DHT22;3243;50.958;7.012;2023-05-08T10:27:33;18.20;99.90
6421;DHT22;3243;50.958;7.012;2023-05-08T10:30:02;18.10;99.90
6421;DHT22;3243;50.958;7.012;2023-05-08T10:32:38;18.00;99.90
6421;DHT22;3243;50.958;7.012;2023-05-08T10:35:10;18.00;99.90
6421;DHT22;3243;50.958;7.012;2023-05-08T10:37:38;18.00;99.90
6421;DHT22;3243;50.958;7.012;2023-05-08T10:42:33;18.10;99.90
6421;DHT22;3243;50.958;7.012;2023-05-08T10:45:04;18.20;99.90
6421;DHT22;3243;50.958;7.012;2023-05-08T10:47:50;18.20;99.90
6421;DHT22;3243;50.958;7.012;2023-05-08T10:55:38;18.50;99.90
6421;DHT22;3243;50.958;7.012;2023-05-08T11:03:30;18.30;99.90
6421;DHT22;3243;50.958;7.012;2023-05-08T11:06:00;18.20;99.90
6421;DHT22;3243;50.958;7.012;2023-05-08T11:08:29;18.10;99.90
6421;DHT22;3243;50.958;7.012;2023-05-08T11:13:46;18.10;99.90
6421;DHT22;3243;50.958;7.012;2023-05-08T11:16:13;18.10;99.90
6421;DHT22;3243;50.958;7.012;2023-05-08T11:19:21;18.20;99.90
6421;DHT22;3243;50.958;7.012;2023-05-08T11:22:20;18.10;99.90
6421;DHT22;3243;50.958;7.012;2023-05-08T11:30:37;18.10;99.90
6421;DHT22;3243;50.958;7.012;2023-05-08T11:35:48;18.10;99.90
6421;DHT22;3243;50.958;7.012;2023-05-08T11:46:15;17.90;99.90
6421;DHT22;3243;50.958;7.012;2023-05-08T11:48:43;17.90;99.90
6421;DHT22;3243;50.958;7.012;2023-05-08T11:51:10;17.90;99.90
6421;DHT22;3243;50.958;7.012;2023-05-08T11:53:39;18.00;99.90
6421;DHT22;3243;50.958;7.012;2023-05-08T11:56:06;18.10;99.90
6421;DHT22;3243;50.958;7.012;2023-05-08T11:58:33;18.20;99.90
6421;DHT22;3243;50.958;7.012;2023-05-08T12:03:29;18.50;99.90
6421;DHT22;3243;50.958;7.012;2023-05-08T12:05:57;18.60;99.90
6421;DHT22;3243;50.958;7.012;2023-05-08T12:08:24;18.60;99.90
6421;DHT22;3243;50.958;7.012;2023-05-08T12:10:53;18.70;99.90
6421;DHT22;3243;50.958;7.012;2023-05-08T12:13:27;18.70;99.90
6421;DHT22;3243;50.958;7.012;2023-05-08T12:15:59;18.70;99.90
6421;DHT22;3243;50.958;7.012;2023-05-08T12:18:27;18.80;99.90
6421;DHT22;3243;50.958;7.012;2023-05-08T12:20:59;18.80;99.90
6421;DHT22;3243;50.958;7.012;2023-05-08T12:23:28;18.70;99.90
6421;DHT22;3243;50.958;7.012;2023-05-08T12:25:58;18.60;99.90
6421;DHT22;3243;50.958;7.012;2023-05-08T12:28:25;18.60;99.90
6421;DHT22;3243;50.958;7.012;2023-05-08T12:30:52;18.50;99.90
6421;DHT22;3243;50.958;7.012;2023-05-08T12:35:47;18.10;99.90
6421;DHT22;3243;50.958;7.012;2023-05-08T12:38:14;18.10;99.90
6421;DHT22;3243;50.958;7.012;2023-05-08T12:40:45;18.10;99.90
6421;DHT22;3243;50.958;7.012;2023-05-08T12:45:41;18.40;99.90
6421;DHT22;3243;50.958;7.012;2023-05-08T12:48:10;18.40;99.90
6421;DHT22;3243;50.958;7.012;2023-05-08T12:50:42;18.60;99.90
6421;DHT22;3243;50.958;7.012;2023-05-08T12:53:17;18.60;99.90
6421;DHT22;3243;50.958;7.012;2023-05-08T12:55:51;18.90;99.90
6421;DHT22;3243;50.958;7.012;2023-05-08T12:58:23;18.90;99.90
6421;DHT22;3243;50.958;7.012;2023-05-08T13:00:51;19.00;99.90
6421;DHT22;3243;50.958;7.012;2023-05-08T13:03:26;19.00;99.90
6421;DHT22;3243;50.958;7.012;2023-05-08T13:05:55;18.90;99.90
6421;DHT22;3243;50.958;7.012;2023-05-08T13:08:32;19.00;99.90
6421;DHT22;3243;50.958;7.012;2023-05-08T13:11:02;18.80;99.90
6421;DHT22;3243;50.958;7.012;2023-05-08T13:13:31;18.70;99.90
6421;DHT22;3243;50.958;7.012;2023-05-08T13:16:02;18.80;99.90
6421;DHT22;3243;50.958;7.012;2023-05-08T13:18:29;18.70;99.90
6421;DHT22;3243;50.958;7.012;2023-05-08T13:20:56;18.70;99.90
6421;DHT22;3243;50.958;7.012;2023-05-08T13:23:23;18.70;99.90
6421;DHT22;3243;50.958;7.012;2023-05-08T13:25:50;18.70;99.90
6421;DHT22;3243;50.958;7.012;2023-05-08T13:28:17;18.80;99.90
6421;DHT22;3243;50.958;7.012;2023-05-08T13:30:43;18.80;99.90
6421;DHT22;3243;50.958;7.012;2023-05-08T13:33:10;18.80;99.90
6421;DHT22;3243;50.958;7.012;2023-05-08T13:38:04;18.80;99.90
6421;DHT22;3243;50.958;7.012;2023-05-08T13:42:58;18.80;99.90
6421;DHT22;3243;50.958;7.012;2023-05-08T13:45:25;18.80;99.90
6421;DHT22;3243;50.958;7.012;2023-05-08T13:47:53;18.80;99.90
6421;DHT22;3243;50.958;7.012;2023-05-08T13:50:20;18.80;99.90
6421;DHT22;3243;50.958;7.012;2023-05-08T13:52:47;19.00;99.90
6421;DHT22;3243;50.958;7.012;2023-05-08T13:55:16;19.00;99.90
6421;DHT22;3243;50.958;7.012;2023-05-08T14:00:10;19.00;99.90
6421;DHT22;3243;50.958;7.012;2023-05-08T14:05:05;19.00;99.90
6421;DHT22;3243;50.958;7.012;2023-05-08T14:12:29;19.30;99.90
6421;DHT22;3243;50.958;7.012;2023-05-08T14:19:51;19.60;99.90
6421;DHT22;3243;50.958;7.012;2023-05-08T14:22:17;19.70;99.90
6421;DHT22;3243;50.958;7.012;2023-05-08T14:32:06;20.00;99.90
6421;DHT22;3243;50.958;7.012;2023-05-08T14:34:34;20.20;99.90
6421;DHT22;3243;50.958;7.012;2023-05-08T14:37:01;20.30;99.90
6421;DHT22;3243;50.958;7.012;2023-05-08T14:44:42;20.90;99.90
6421;DHT22;3243;50.958;7.012;2023-05-08T14:47:09;21.10;99.90
6421;DHT22;3243;50.958;7.012;2023-05-08T14:49:36;21.30;99.90
6421;DHT22;3243;50.958;7.012;2023-05-08T14:52:05;21.50;99.90
6421;DHT22;3243;50.958;7.012;2023-05-08T14:54:32;21.80;99.90
6421;DHT22;3243;50.958;7.012;2023-05-08T14:56:59;22.10;99.90
6421;DHT22;3243;50.958;7.012;2023-05-08T15:04:20;22.50;99.90
6421;DHT22;3243;50.958;7.012;2023-05-08T15:06:47;22.60;99.90
6421;DHT22;3243;50.958;7.012;2023-05-08T15:09:14;22.70;99.90
6421;DHT22;3243;50.958;7.012;2023-05-08T15:11:42;22.90;99.90
6421;DHT22;3243;50.958;7.012;2023-05-08T15:14:09;22.90;99.90
6421;DHT22;3243;50.958;7.012;2023-05-08T15:16:36;23.00;99.90
6421;DHT22;3243;50.958;7.012;2023-05-08T15:19:03;22.70;99.90
6421;DHT22;3243;50.958;7.012;2023-05-08T15:23:57;22.70;99.90
6421;DHT22;3243;50.958;7.012;2023-05-08T15:26:23;22.30;99.90
6421;DHT22;3243;50.958;7.012;2023-05-08T15:28:50;22.10;99.90
6421;DHT22;3243;50.958;7.012;2023-05-08T15:31:17;22.00;99.90
6421;DHT22;3243;50.958;7.012;2023-05-08T15:36:13;21.80;99.90
6421;DHT22;3243;50.958;7.012;2023-05-08T15:38:40;21.70;99.90
6421;DHT22;3243;50.958;7.012;2023-05-08T15:41:07;21.60;99.90
6421;DHT22;3243;50.958;7.012;2023-05-08T15:43:41;21.50;99.90
6421;DHT22;3243;50.958;7.012;2023-05-08T15:46:07;21.40;99.90
6421;DHT22;3243;50.958;7.012;2023-05-08T15:48:34;21.30;99.90
6421;DHT22;3243;50.958;7.012;2023-05-08T15:53:28;21.20;99.90
6421;DHT22;3243;50.958;7.012;2023-05-08T16:00:50;20.90;99.90
6421;DHT22;3243;50.958;7.012;2023-05-08T16:03:17;20.90;99.90
6421;DHT22;3243;50.958;7.012;2023-05-08T16:05:45;20.80;99.90
6421;DHT22;3243;50.958;7.012;2023-05-08T16:08:11;20.70;99.90
6421;DHT22;3243;50.958;7.012;2023-05-08T16:10:39;20.60;99.90
6421;DHT22;3243;50.958;7.012;2023-05-08T16:13:07;20.70;99.90
6421;DHT22;3243;50.958;7.012;2023-05-08T16:15:34;20.70;99.90
6421;DHT22;3243;50.958;7.012;2023-05-08T16:18:01;20.70;99.90
6421;DHT22;3243;50.958;7.012;2023-05-08T16:20:28;20.80;99.90
6421;DHT22;3243;50.958;7.012;2023-05-08T16:22:56;20.80;99.90
6421;DHT22;3243;50.958;7.012;2023-05-08T16:25:23;20.70;99.90
6421;DHT22;3243;50.958;7.012;2023-05-08T16:27:50;20.70;99.90
6421;DHT22;3243;50.958;7.012;2023-05-08T16:30:17;20.70;99.90
6421;DHT22;3243;50.958;7.012;2023-05-08T16:32:44;20.70;99.90
6421;DHT22;3243;50.958;7.012;2023-05-08T16:35:11;20.70;99.90
6421;DHT22;3243;50.958;7.012;2023-05-08T16:37:39;20.70;99.90
6421;DHT22;3243;50.958;7.012;2023-05-08T16:40:07;20.70;99.90
6421;DHT22;3243;50.958;7.012;2023-05-08T16:42:34;20.60;99.90
6421;DHT22;3243;50.958;7.012;2023-05-08T16:45:05;20.70;99.90
6421;DHT22;3243;50.958;7.012;2023-05-08T16:47:33;20.80;99.90
6421;DHT22;3243;50.958;7.012;2023-05-08T16:49:59;20.80;99.90
6421;DHT22;3243;50.958;7.012;2023-05-08T16:52:26;20.90;99.90
6421;DHT22;3243;50.958;7.012;2023-05-08T16:54:53;21.00;99.90
6421;DHT22;3243;50.958;7.012;2023-05-08T16:57:20;21.00;99.90
6421;DHT22;3243;50.958;7.012;2023-05-08T16:59:47;21.00;99.90
6421;DHT22;3243;50.958;7.012;2023-05-08T17:02:14;20.80;99.90
6421;DHT22;3243;50.958;7.012;2023-05-08T17:04:45;20.80;99.90
6421;DHT22;3243;50.958;7.012;2023-05-08T17:07:14;20.60;99.90
6421;DHT22;3243;50.958;7.012;2023-05-08T17:09:42;20.50;99.90
6421;DHT22;3243;50.958;7.012;2023-05-08T17:12:09;20.20;99.90
6421;DHT22;3243;50.958;7.012;2023-05-08T17:14:36;20.20;99.90
6421;DHT22;3243;50.958;7.012;2023-05-08T17:17:05;20.00;99.90
6421;DHT22;3243;50.958;7.012;2023-05-08T17:19:32;20.00;99.90
6421;DHT22;3243;50.958;7.012;2023-05-08T17:21:59;20.00;99.90
6421;DHT22;3243;50.958;7.012;2023-05-08T17:24:29;19.90;99.90
6421;DHT22;3243;50.958;7.012;2023-05-08T17:26:57;19.90;99.90
6421;DHT22;3243;50.958;7.012;2023-05-08T17:29:24;19.10;99.90
6421;DHT22;3243;50.958;7.012;2023-05-08T17:31:50;19.80;99.90
6421;DHT22;3243;50.958;7.012;2023-05-08T17:34:17;19.80;99.90
6421;DHT22;3243;50.958;7.012;2023-05-08T17:36:44;19.70;99.90
6421;DHT22;3243;50.958;7.012;2023-05-08T17:39:11;19.70;99.90
6421;DHT22;3243;50.958;7.012;2023-05-08T17:41:38;19.60;99.90
6421;DHT22;3243;50.958;7.012;2023-05-08T17:44:04;19.50;99.90
6421;DHT22;3243;50.958;7.012;2023-05-08T17:46:32;19.30;99.90
6421;DHT22;3243;50.958;7.012;2023-05-08T17:48:59;19.30;99.90
6421;DHT22;3243;50.958;7.012;2023-05-08T17:51:25;19.20;99.90
6421;DHT22;3243;50.958;7.012;2023-05-08T17:53:52;19.20;99.90
6421;DHT22;3243;50.958;7.012;2023-05-08T17:56:19;19.10;99.90
6421;DHT22;3243;50.958;7.012;2023-05-08T17:58:49;19.10;99.90
6421;DHT22;3243;50.958;7.012;2023-05-08T18:01:18;18.90;99.90
6421;DHT22;3243;50.958;7.012;2023-05-08T18:03:45;18.90;99.90
6421;DHT22;3243;50.958;7.012;2023-05-08T18:06:14;18.80;99.90
6421;DHT22;3243;50.958;7.012;2023-05-08T18:08:41;18.70;99.90
6421;DHT22;3243;50.958;7.012;2023-05-08T18:11:22;18.70;99.90
6421;DHT22;3243;50.958;7.012;2023-05-08T18:13:50;18.70;99.90
6421;DHT22;3243;50.958;7.012;2023-05-08T18:16:18;20.60;99.90
6421;DHT22;3243;50.958;7.012;2023-05-08T18:18:46;18.50;99.90
6421;DHT22;3243;50.958;7.012;2023-05-08T18:21:13;18.60;99.90
6421;DHT22;3243;50.958;7.012;2023-05-08T18:23:40;18.50;99.90
6421;DHT22;3243;50.958;7.012;2023-05-08T18:26:07;18.50;99.90
6421;DHT22;3243;50.958;7.012;2023-05-08T18:28:33;18.30;99.90
6421;DHT22;3243;50.958;7.012;2023-05-08T18:31:02;18.30;99.90
6421;DHT22;3243;50.958;7.012;2023-05-08T18:33:28;18.20;99.90
6421;DHT22;3243;50.958;7.012;2023-05-08T18:35:55;18.20;99.90
6421;DHT22;3243;50.958;7.012;2023-05-08T18:38:22;18.00;99.90
6421;DHT22;3243;50.958;7.012;2023-05-08T18:40:49;17.90;99.90
6421;DHT22;3243;50.958;7.012;2023-05-08T18:45:43;17.80;99.90
6421;DHT22;3243;50.958;7.012;2023-05-08T18:48:10;17.80;99.90
6421;DHT22;3243;50.958;7.012;2023-05-08T18:50:37;17.70;99.90
6421;DHT22;3243;50.958;7.012;2023-05-08T18:53:03;17.70;99.90
6421;DHT22;3243;50.958;7.012;2023-05-08T18:55:31;17.70;99.90
6421;DHT22;3243;50.958;7.012;2023-05-08T18:57:58;17.60;99.90
6421;DHT22;3243;50.958;7.012;2023-05-08T19:00:25;17.50;99.90
6421;DHT22;3243;50.958;7.012;2023-05-08T19:05:19;17.40;99.90
6421;DHT22;3243;50.958;7.012;2023-05-08T19:07:46;17.40;99.90
6421;DHT22;3243;50.958;7.012;2023-05-08T19:10:13;17.30;99.90
6421;DHT22;3243;50.958;7.012;2023-05-08T19:12:40;17.20;99.90
6421;DHT22;3243;50.958;7.012;2023-05-08T19:15:08;17.20;99.90
6421;DHT22;3243;50.958;7.012;2023-05-08T19:17:35;17.00;99.90
6421;DHT22;3243;50.958;7.012;2023-05-08T19:20:02;17.10;99.90
6421;DHT22;3243;50.958;7.012;2023-05-08T19:25:00;17.00;99.90
6421;DHT22;3243;50.958;7.012;2023-05-08T19:27:27;17.00;99.90
6421;DHT22;3243;50.958;7.012;2023-05-08T19:29:54;16.90;99.90
6421;DHT22;3243;50.958;7.012;2023-05-08T19:32:21;16.90;99.90
6421;DHT22;3243;50.958;7.012;2023-05-08T19:34:48;16.90;99.90
6421;DHT22;3243;50.958;7.012;2023-05-08T19:37:15;16.90;99.90
6421;DHT22;3243;50.958;7.012;2023-05-08T19:39:42;16.80;99.90
6421;DHT22;3243;50.958;7.012;2023-05-08T19:42:08;16.80;99.90
6421;DHT22;3243;50.958;7.012;2023-05-08T19:44:37;16.90;99.90
6421;DHT22;3243;50.958;7.012;2023-05-08T19:47:04;16.80;99.90
6421;DHT22;3243;50.958;7.012;2023-05-08T19:49:30;16.80;99.90
6421;DHT22;3243;50.958;7.012;2023-05-08T19:56:52;16.60;99.90
6421;DHT22;3243;50.958;7.012;2023-05-08T19:59:18;16.50;99.90
6421;DHT22;3243;50.958;7.012;2023-05-08T20:01:45;16.50;99.90
6421;DHT22;3243;50.958;7.012;2023-05-08T20:04:12;16.40;99.90
6421;DHT22;3243;50.958;7.012;2023-05-08T20:11:34;16.30;99.90
6421;DHT22;3243;50.958;7.012;2023-05-08T20:14:01;16.30;99.90
6421;DHT22;3243;50.958;7.012;2023-05-08T20:18:55;16.20;99.90
6421;DHT22;3243;50.958;7.012;2023-05-08T20:23:49;16.20;99.90
6421;DHT22;3243;50.958;7.012;2023-05-08T20:28:43;16.10;99.90
6421;DHT22;3243;50.958;7.012;2023-05-08T20:31:10;16.10;99.90
6421;DHT22;3243;50.958;7.012;2023-05-08T20:33:38;15.90;99.90
6421;DHT22;3243;50.958;7.012;2023-05-08T20:36:06;16.00;99.90